Time;durP1;ratioP1;P1;durP2;ratioP2;P2;SDS_P1;SDS_P2;PMS_P1;PMS_P2;Temp;Humidity;BMP_temperature;BMP_pressure;BME280_temperature;BME280_humidity;BME280_pressure;Samples;Min_cycle;Max_cycle;Signal;HPM_P1;HPM_P2
2023/07/19 00:01:34;;;;;;;5.60;1.43;;;13.00;99.90;12.40;100218;;;;589993;243;25126;-79
2023/07/19 00:04:02;;;;;;;1.23;1.13;;;13.00;99.90;12.40;100223;;;;604119;238;24017;-80
2023/07/19 00:06:30;;;;;;;1.63;1.33;;;13.00;99.90;12.40;100204;;;;595070;237;24043;-81
2023/07/19 00:08:58;;;;;;;1.67;1.30;;;13.10;99.90;12.40;100206;;;;572101;247;24049;-79
2023/07/19 00:11:27;;;;;;;4.57;1.13;;;13.10;99.90;12.40;100198;;;;596721;237;24084;-80
2023/07/19 00:13:55;;;;;;;1.50;1.40;;;13.10;99.90;12.40;100192;;;;595700;237;24049;-80
2023/07/19 00:16:23;;;;;;;3.33;1.67;;;13.10;99.90;12.40;100184;;;;595685;237;24031;-79
2023/07/19 00:18:50;;;;;;;1.70;1.57;;;13.10;99.90;12.50;100183;;;;571438;248;24045;-79
2023/07/19 00:21:19;;;;;;;3.70;1.50;;;13.10;99.90;12.50;100195;;;;596615;237;24030;-79
2023/07/19 00:23:46;;;;;;;4.30;1.47;;;13.10;99.90;12.50;100181;;;;596639;237;24118;-81
2023/07/19 00:26:15;;;;;;;2.47;1.07;;;13.20;99.90;12.60;100177;;;;595848;237;24039;-79
2023/07/19 00:28:43;;;;;;;1.77;1.30;;;13.20;99.90;12.60;100172;;;;595870;237;24015;-81
2023/07/19 00:31:11;;;;;;;2.73;1.00;;;13.20;99.90;12.60;100176;;;;596135;237;24071;-80
2023/07/19 00:33:39;;;;;;;1.13;1.03;;;13.20;99.90;12.60;100171;;;;595599;237;24011;-80
2023/07/19 00:36:07;;;;;;;2.07;1.20;;;13.20;99.90;12.60;100167;;;;595732;237;24014;-79
2023/07/19 00:38:35;;;;;;;2.50;1.00;;;13.20;99.90;12.60;100170;;;;596115;237;24070;-81
2023/07/19 00:41:02;;;;;;;1.03;1.00;;;13.20;99.90;12.60;100163;;;;571554;248;24058;-80
2023/07/19 00:43:31;;;;;;;1.60;1.30;;;13.20;99.90;12.60;100160;;;;595125;238;24047;-79
2023/07/19 00:45:59;;;;;;;1.80;1.13;;;13.20;99.90;12.60;100159;;;;595432;238;24089;-81
2023/07/19 00:48:27;;;;;;;2.70;1.23;;;13.20;99.90;12.60;100158;;;;605028;238;24063;-80
2023/07/19 00:50:55;;;;;;;1.33;0.93;;;13.20;99.90;12.50;100155;;;;595179;238;24096;-79
2023/07/19 00:53:24;;;;;;;8.53;1.90;;;13.20;99.90;12.50;100140;;;;579475;243;24055;-80
2023/07/19 00:55:55;;;;;;;1.77;1.17;;;13.20;99.90;12.50;100145;;;;605048;237;24101;-79
2023/07/19 00:58:20;;;;;;;4.40;1.60;;;13.20;99.90;12.50;100143;;;;579815;247;25129;-80
2023/07/19 01:00:47;;;;;;;1.60;1.10;;;13.20;99.90;12.50;100143;;;;604552;238;24035;-80
2023/07/19 01:03:15;;;;;;;1.57;1.37;;;13.20;99.90;12.60;100138;;;;595029;238;24051;-79
2023/07/19 01:05:47;;;;;;;1.43;1.30;;;13.20;99.90;12.60;100136;;;;570489;248;24065;-81
2023/07/19 01:08:14;;;;;;;3.80;1.43;;;13.20;99.90;12.70;100137;;;;594989;238;24043;-80
2023/07/19 01:10:39;;;;;;;2.43;1.23;;;13.30;99.90;12.70;100122;;;;594952;238;24036;-80
2023/07/19 01:13:08;;;;;;;2.33;1.13;;;13.30;99.90;12.80;100131;;;;595011;238;24043;-80
2023/07/19 01:15:38;;;;;;;1.70;1.33;;;13.40;99.90;12.80;100123;;;;604242;238;24068;-82
2023/07/19 01:18:09;;;;;;;5.03;1.50;;;13.40;99.90;12.80;100121;;;;571356;247;24103;-80
2023/07/19 01:20:33;;;;;;;1.37;1.27;;;13.50;99.90;12.90;100120;;;;596542;237;24058;-79
2023/07/19 01:23:05;;;;;;;3.17;1.40;;;13.50;99.90;12.90;100111;;;;569747;247;24061;-80
2023/07/19 01:25:29;;;;;;;1.80;1.60;;;13.50;99.90;12.90;100108;;;;605072;237;24048;-79
2023/07/19 01:27:58;;;;;;;2.33;1.47;;;13.50;99.90;12.90;100113;;;;595664;237;25057;-78
2023/07/19 01:30:27;;;;;;;1.37;1.23;;;13.60;99.90;12.90;100112;;;;582224;245;24090;-79
2023/07/19 01:32:55;;;;;;;1.10;1.00;;;13.50;99.90;12.90;100105;;;;595504;237;24007;-79
2023/07/19 01:35:22;;;;;;;3.33;1.83;;;13.60;99.90;12.90;100106;;;;570987;248;24117;-79
2023/07/19 01:37:50;;;;;;;3.63;1.50;;;13.60;99.90;12.90;100105;;;;595286;237;24094;-79
2023/07/19 01:40:18;;;;;;;4.57;1.50;;;13.60;99.90;13.00;100107;;;;595280;237;24030;-78
2023/07/19 01:42:47;;;;;;;1.97;1.13;;;13.60;99.90;13.00;100101;;;;595300;237;24111;-81
2023/07/19 01:45:14;;;;;;;4.93;1.50;;;13.70;99.90;13.10;100100;;;;595349;237;24065;-79
2023/07/19 01:47:42;;;;;;;2.87;1.83;;;13.70;99.90;13.10;100107;;;;594908;237;24042;-79
2023/07/19 01:50:10;;;;;;;2.87;1.50;;;13.80;99.90;13.20;100105;;;;595198;237;24021;-79
2023/07/19 01:52:41;;;;;;;1.93;1.80;;;13.80;99.90;13.20;100104;;;;595210;237;24027;-79
2023/07/19 01:55:06;;;;;;;3.00;1.87;;;13.80;99.90;13.20;100101;;;;572663;248;24122;-79
2023/07/19 01:57:37;;;;;;;3.17;1.40;;;13.80;99.90;13.20;100096;;;;604405;237;24058;-80
2023/07/19 02:00:05;;;;;;;3.37;1.70;;;13.90;99.90;13.30;100096;;;;603726;238;24044;-79
2023/07/19 02:02:30;;;;;;;2.17;1.40;;;13.90;99.90;13.30;100089;;;;576038;247;45305;-80
2023/07/19 02:05:01;;;;;;;3.03;1.67;;;13.90;99.90;13.30;100099;;;;594426;238;24045;-79
2023/07/19 02:07:26;;;;;;;4.13;1.40;;;13.90;99.90;13.30;100091;;;;568554;248;24139;-80
2023/07/19 02:09:54;;;;;;;1.43;1.30;;;13.90;99.90;13.40;100089;;;;595424;238;24039;-80
2023/07/19 02:12:22;;;;;;;7.00;1.77;;;14.10;99.90;13.40;100087;;;;570822;248;24057;-80
2023/07/19 02:14:54;;;;;;;3.70;1.60;;;14.00;99.90;13.50;100085;;;;595057;238;24020;-79
2023/07/19 02:17:18;;;;;;;5.83;1.60;;;14.10;99.90;13.50;100087;;;;595004;238;24044;-79
2023/07/19 02:19:49;;;;;;;5.47;1.60;;;14.10;99.90;13.60;100080;;;;570632;248;24062;-79
2023/07/19 02:22:18;;;;;;;4.40;1.43;;;14.20;99.90;13.60;100088;;;;593188;238;24099;-80
2023/07/19 02:24:46;;;;;;;1.67;1.20;;;14.30;99.90;13.70;100077;;;;604539;238;24129;-78
2023/07/19 02:27:15;;;;;;;1.77;1.63;;;14.30;99.90;13.70;100082;;;;595116;238;24025;-79
2023/07/19 02:29:43;;;;;;;2.17;1.60;;;14.30;99.90;13.80;100086;;;;595653;237;24076;-79
2023/07/19 02:32:11;;;;;;;3.83;1.43;;;14.40;99.90;13.90;100080;;;;596432;237;24106;-80
2023/07/19 02:34:39;;;;;;;1.77;1.63;;;14.40;99.90;13.90;100074;;;;570286;247;24013;-80
2023/07/19 02:37:07;;;;;;;1.40;1.30;;;14.50;99.90;14.00;100077;;;;596819;237;24070;-81
2023/07/19 02:39:35;;;;;;;0.93;0.93;;;14.60;99.90;14.00;100078;;;;571385;247;24060;-79
2023/07/19 02:42:05;;;;;;;2.77;1.23;;;14.60;99.90;14.10;100077;;;;595569;237;24032;-79
2023/07/19 02:44:30;;;;;;;2.00;1.40;;;14.70;99.90;14.10;100068;;;;581843;247;24060;-79
2023/07/19 02:46:59;;;;;;;4.60;1.33;;;14.80;99.90;14.20;100065;;;;595531;237;24047;-79
2023/07/19 02:49:28;;;;;;;1.30;1.30;;;14.80;99.90;14.20;100056;;;;594868;237;24086;-78
2023/07/19 02:51:56;;;;;;;2.67;1.10;;;14.80;99.90;14.30;100059;;;;594650;237;24072;-79
2023/07/19 02:54:24;;;;;;;2.40;1.50;;;14.90;99.90;14.30;100055;;;;594842;237;24033;-79
2023/07/19 02:56:52;;;;;;;3.80;1.93;;;14.90;99.90;14.30;100049;;;;594778;237;24012;-79
2023/07/19 02:59:19;;;;;;;7.40;1.63;;;14.90;99.90;14.40;100049;;;;594930;237;24039;-79
2023/07/19 03:01:47;;;;;;;1.97;1.33;;;14.90;99.90;14.40;100053;;;;595010;237;24066;-80
2023/07/19 03:04:15;;;;;;;5.63;1.60;;;15.00;99.90;14.40;100062;;;;570770;248;24154;-81
2023/07/19 03:06:47;;;;;;;1.03;0.90;;;15.00;99.90;14.40;100052;;;;595781;238;24038;-79
2023/07/19 03:09:15;;;;;;;3.37;1.43;;;15.00;99.90;14.50;100054;;;;595413;238;24125;-82
2023/07/19 03:11:43;;;;;;;2.83;1.07;;;15.00;99.90;14.50;100061;;;;594888;238;24027;-80
2023/07/19 03:14:11;;;;;;;5.33;1.60;;;15.10;99.90;14.50;100057;;;;604168;238;24059;-81
2023/07/19 03:16:39;;;;;;;3.13;1.67;;;15.10;99.90;14.60;100058;;;;589832;238;35037;-79
2023/07/19 03:19:11;;;;;;;1.50;1.40;;;15.20;99.90;14.70;100054;;;;594908;238;24043;-80
2023/07/19 03:21:34;;;;;;;4.53;1.37;;;15.20;99.90;14.80;100051;;;;592625;238;24028;-80
2023/07/19 03:24:02;;;;;;;1.10;1.10;;;15.30;99.90;14.80;100051;;;;571520;248;24040;-79
2023/07/19 03:26:30;;;;;;;2.37;1.30;;;15.40;99.90;14.90;100057;;;;596022;238;24045;-79
2023/07/19 03:28:58;;;;;;;3.23;1.10;;;15.50;99.90;15.00;100057;;;;595916;238;24147;-79
2023/07/19 03:31:26;;;;;;;2.23;1.30;;;15.50;99.90;15.10;100049;;;;595496;238;24028;-79
2023/07/19 03:33:54;;;;;;;1.90;1.53;;;15.60;99.90;15.20;100056;;;;570912;248;24052;-79
2023/07/19 03:36:23;;;;;;;2.10;1.60;;;15.80;99.90;15.30;100054;;;;595539;238;24048;-80
2023/07/19 03:38:51;;;;;;;6.10;1.47;;;16.00;99.90;15.40;100053;;;;595539;238;24028;-79
2023/07/19 03:41:19;;;;;;;1.70;1.30;;;15.90;99.90;15.60;100057;;;;596237;237;24042;-82
2023/07/19 03:43:48;;;;;;;4.50;1.43;;;16.40;99.90;15.80;100048;;;;596605;237;24044;-80
2023/07/19 03:46:16;;;;;;;1.57;1.50;;;16.30;99.90;16.00;100050;;;;571438;247;24076;-81
2023/07/19 03:48:44;;;;;;;1.63;1.50;;;16.60;99.90;16.20;100051;;;;595903;237;24025;-81
2023/07/19 03:51:12;;;;;;;3.23;1.50;;;16.80;99.90;16.40;100047;;;;595369;237;24042;-80
2023/07/19 03:53:40;;;;;;;4.50;1.50;;;16.90;99.90;16.60;100051;;;;595477;237;24058;-80
2023/07/19 03:56:08;;;;;;;1.93;1.67;;;17.10;99.90;16.70;100032;;;;595511;237;24017;-79
2023/07/19 03:58:38;;;;;;;2.50;1.30;;;17.20;99.90;16.80;100042;;;;595134;237;24086;-80
2023/07/19 04:01:03;;;;;;;4.10;1.80;;;17.30;99.90;16.80;100045;;;;604022;237;24033;-80
2023/07/19 04:03:31;;;;;;;2.00;1.23;;;17.30;99.90;16.70;100047;;;;595160;237;24042;-81
2023/07/19 04:06:00;;;;;;;2.20;1.47;;;17.20;99.90;16.70;100057;;;;594927;237;24066;-80
2023/07/19 04:08:31;;;;;;;1.60;1.27;;;17.20;99.90;16.60;100052;;;;594830;237;24039;-81
2023/07/19 04:10:56;;;;;;;1.80;1.47;;;17.20;99.90;16.50;100057;;;;597918;237;24043;-79
2023/07/19 04:13:28;;;;;;;1.87;1.37;;;17.10;99.90;16.50;100061;;;;570371;248;24065;-80
2023/07/19 04:15:52;;;;;;;1.60;1.47;;;17.10;99.90;16.40;100058;;;;594652;237;24087;-80
2023/07/19 04:18:20;;;;;;;5.23;1.37;;;16.90;99.90;16.30;100059;;;;570201;248;24117;-81
2023/07/19 04:20:58;;;;;;;1.33;1.23;;;16.90;99.90;16.30;100056;;;;594452;238;24029;-80
2023/07/19 04:23:27;;;;;;;1.37;1.17;;;16.80;99.90;16.30;100055;;;;568814;248;24063;-79
2023/07/19 04:25:56;;;;;;;2.13;1.23;;;16.80;99.90;16.30;100056;;;;604508;238;24077;-79
2023/07/19 04:28:24;;;;;;;2.20;1.33;;;16.80;99.90;16.30;100064;;;;594972;238;25101;-79
2023/07/19 04:30:52;;;;;;;2.57;1.63;;;16.80;99.90;16.20;100061;;;;570489;248;24060;-80
2023/07/19 04:33:23;;;;;;;4.33;1.63;;;16.80;99.90;16.20;100057;;;;594936;238;24103;-78
2023/07/19 04:35:47;;;;;;;6.43;1.33;;;16.80;99.90;16.20;100061;;;;581144;247;24057;-82
2023/07/19 04:38:17;;;;;;;6.90;1.53;;;16.80;99.90;16.20;100053;;;;595008;238;24056;-80
2023/07/19 04:40:44;;;;;;;3.70;1.33;;;16.80;99.90;16.20;100053;;;;595023;238;24077;-82
2023/07/19 04:43:12;;;;;;;5.93;1.47;;;16.70;99.90;16.20;100048;;;;595174;238;24038;-80
2023/07/19 04:45:45;;;;;;;8.83;1.70;;;16.70;99.90;16.20;100052;;;;570608;248;24112;-80
2023/07/19 04:48:10;;;;;;;3.57;1.50;;;16.80;99.90;16.20;100049;;;;594879;238;24153;-79
2023/07/19 04:50:37;;;;;;;1.27;1.00;;;16.80;99.90;16.30;100048;;;;595103;238;24148;-81
2023/07/19 04:53:05;;;;;;;5.63;1.40;;;16.80;99.90;16.40;100042;;;;595373;237;24019;-80
2023/07/19 04:55:33;;;;;;;2.63;1.30;;;16.90;99.90;16.50;100045;;;;571922;247;24096;-81
2023/07/19 04:58:02;;;;;;;5.60;1.50;;;17.00;99.90;16.80;100046;;;;605524;235;24079;-79
2023/07/19 05:00:29;;;;;;;3.13;1.67;;;17.30;99.90;17.10;100041;;;;570908;247;24061;-81
2023/07/19 05:02:57;;;;;;;1.70;1.60;;;17.60;99.90;17.40;100049;;;;595346;237;24013;-80
2023/07/19 05:05:25;;;;;;;4.10;1.27;;;17.90;99.90;17.60;100053;;;;595194;237;24062;-81
2023/07/19 05:07:53;;;;;;;2.30;1.50;;;18.20;99.90;17.70;100055;;;;595277;237;24067;-80
2023/07/19 05:10:24;;;;;;;2.17;1.40;;;18.30;99.90;17.80;100053;;;;595652;237;24062;-82
2023/07/19 05:12:49;;;;;;;7.77;1.87;;;18.30;99.90;17.80;100049;;;;604339;237;24040;-80
2023/07/19 05:15:17;;;;;;;4.37;1.57;;;18.40;99.90;17.90;100048;;;;594969;237;24038;-79
2023/07/19 05:17:45;;;;;;;2.73;1.00;;;18.50;99.90;18.00;100057;;;;594929;237;24025;-80
2023/07/19 05:20:13;;;;;;;2.83;1.53;;;18.50;99.90;18.00;100054;;;;570708;248;24082;-80
2023/07/19 05:22:40;;;;;;;1.77;1.30;;;18.60;99.90;18.10;100053;;;;594892;237;23084;-81
2023/07/19 05:25:12;;;;;;;3.93;1.30;;;18.70;99.90;18.20;100055;;;;570919;248;23106;-80
2023/07/19 05:27:36;;;;;;;3.00;1.50;;;18.70;99.90;18.20;100054;;;;604582;237;24041;-80
2023/07/19 05:30:04;;;;;;;1.33;1.13;;;18.70;99.90;18.20;100052;;;;595034;238;24085;-80
2023/07/19 05:32:32;;;;;;;2.77;1.57;;;18.70;99.90;18.30;100044;;;;595069;238;24097;-80
2023/07/19 05:35:01;;;;;;;6.57;1.60;;;19.00;99.90;18.50;100039;;;;595077;238;24013;-81
2023/07/19 05:37:33;;;;;;;1.73;1.20;;;18.90;99.90;18.70;100040;;;;570671;248;24107;-80
2023/07/19 05:39:57;;;;;;;4.80;1.60;;;19.20;99.90;18.90;100045;;;;604317;236;23084;-79
2023/07/19 05:42:25;;;;;;;4.17;1.43;;;19.40;99.90;19.10;100048;;;;595032;238;25091;-80
2023/07/19 05:44:52;;;;;;;1.47;1.37;;;19.60;99.90;19.10;100041;;;;595164;238;24073;-80
2023/07/19 05:47:20;;;;;;;5.23;1.67;;;19.60;99.90;19.20;100048;;;;595014;238;24024;-80
2023/07/19 05:49:48;;;;;;;5.73;1.73;;;19.70;99.90;19.20;100047;;;;595113;238;24013;-81
2023/07/19 05:52:16;;;;;;;7.87;1.60;;;19.70;99.90;19.20;100046;;;;595448;238;24044;-82
2023/07/19 05:54:45;;;;;;;2.10;1.53;;;19.70;99.90;19.30;100046;;;;595050;238;24032;-81
2023/07/19 05:57:12;;;;;;;3.20;1.40;;;19.70;99.90;19.30;100047;;;;595413;238;24058;-80
2023/07/19 05:59:40;;;;;;;1.67;1.10;;;19.80;99.90;19.20;100046;;;;571193;248;23027;-80
2023/07/19 06:02:08;;;;;;;3.87;1.83;;;19.70;99.90;19.10;100042;;;;596191;238;24052;-81
2023/07/19 06:04:36;;;;;;;5.03;1.80;;;19.70;99.90;19.00;100043;;;;596852;237;23107;-81
2023/07/19 06:07:04;;;;;;;8.37;1.83;;;19.60;99.90;18.90;100046;;;;573290;247;24062;-77
2023/07/19 06:09:32;;;;;;;12.07;1.53;;;19.50;99.90;18.90;100039;;;;597487;237;23154;-80
2023/07/19 06:12:00;;;;;;;4.63;1.70;;;19.40;99.90;18.90;100041;;;;597319;237;23093;-78
2023/07/19 06:14:28;;;;;;;4.10;1.97;;;19.40;99.90;18.90;100028;;;;596968;237;24060;-79
2023/07/19 06:16:56;;;;;;;1.93;1.83;;;19.40;99.90;18.80;100032;;;;596785;237;23052;-78
2023/07/19 06:19:23;;;;;;;1.40;1.30;;;19.30;99.90;18.80;100040;;;;591851;242;24147;-78
2023/07/19 06:21:51;;;;;;;1.60;1.50;;;19.30;99.90;18.80;100037;;;;597017;237;24165;-76
2023/07/19 06:24:19;;;;;;;1.30;1.30;;;19.30;99.90;18.80;100036;;;;596278;237;24065;-81
2023/07/19 06:26:47;;;;;;;1.63;1.20;;;19.30;99.90;18.80;100027;;;;596598;237;23100;-82
2023/07/19 06:29:15;;;;;;;3.97;1.80;;;19.20;99.90;18.70;100029;;;;572080;248;24025;-83
2023/07/19 06:31:43;;;;;;;10.10;1.83;;;19.30;99.90;18.70;100029;;;;596508;237;24094;-83
2023/07/19 06:34:12;;;;;;;2.83;1.70;;;19.20;99.90;18.70;100019;;;;571873;248;23092;-83
2023/07/19 06:36:40;;;;;;;7.27;1.27;;;19.10;99.90;18.60;100024;;;;596306;237;24016;-80
2023/07/19 06:39:09;;;;;;;1.00;1.00;;;19.00;99.90;18.50;100021;;;;595695;237;24037;-81
2023/07/19 06:41:37;;;;;;;2.27;1.20;;;19.00;99.90;18.50;100021;;;;570670;248;24097;-81
2023/07/19 06:44:05;;;;;;;3.60;1.33;;;19.00;99.90;18.40;100021;;;;594965;238;23061;-80
2023/07/19 06:46:33;;;;;;;2.53;1.30;;;18.90;99.90;18.40;100021;;;;594867;238;24100;-79
2023/07/19 06:49:01;;;;;;;1.37;1.30;;;18.90;99.90;18.40;100014;;;;594964;238;23091;-80
2023/07/19 06:51:29;;;;;;;1.13;1.00;;;18.90;99.90;18.40;100016;;;;570518;248;24114;-80
2023/07/19 06:53:56;;;;;;;2.50;1.33;;;18.90;99.90;18.50;100015;;;;594985;238;24077;-80
2023/07/19 06:56:24;;;;;;;7.10;1.70;;;19.00;99.90;18.50;100012;;;;594537;238;24031;-80
2023/07/19 06:58:53;;;;;;;1.63;1.27;;;19.10;99.90;18.60;100013;;;;604228;238;24068;-80
2023/07/19 07:01:22;;;;;;;1.30;1.00;;;19.10;99.90;18.70;100017;;;;570577;248;23066;-79
2023/07/19 07:03:51;;;;;;;2.17;1.30;;;19.10;99.90;18.70;100019;;;;595072;238;24082;-80
2023/07/19 07:06:18;;;;;;;7.33;1.40;;;19.20;99.90;18.70;100020;;;;594992;238;24058;-80
2023/07/19 07:08:46;;;;;;;6.53;1.70;;;19.20;99.90;18.80;100016;;;;570666;248;24055;-80
2023/07/19 07:11:13;;;;;;;2.67;1.40;;;19.20;99.90;18.80;100018;;;;595077;238;24080;-80
2023/07/19 07:13:41;;;;;;;3.20;2.70;;;19.30;99.90;18.80;100023;;;;595125;238;24094;-80
2023/07/19 07:16:11;;;;;;;5.30;1.53;;;19.30;99.90;18.80;100018;;;;595606;237;24034;-81
2023/07/19 07:18:37;;;;;;;5.70;1.50;;;19.30;99.90;18.80;100019;;;;596167;237;24038;-80
2023/07/19 07:21:06;;;;;;;4.13;1.20;;;19.30;99.90;18.80;100018;;;;595983;237;24024;-80
2023/07/19 07:23:35;;;;;;;3.00;1.37;;;19.30;99.90;18.80;100024;;;;595762;237;24061;-80
2023/07/19 07:26:03;;;;;;;8.43;1.80;;;19.20;99.90;18.70;100021;;;;595246;237;24090;-80
2023/07/19 07:28:31;;;;;;;1.10;1.10;;;19.20;99.90;18.70;100019;;;;595448;237;24017;-80
2023/07/19 07:30:59;;;;;;;1.40;1.30;;;19.20;99.90;18.60;100026;;;;571006;247;24058;-80
2023/07/19 07:33:27;;;;;;;3.13;1.53;;;19.10;99.90;18.50;100013;;;;604703;237;24073;-80
2023/07/19 07:35:55;;;;;;;9.07;1.37;;;19.00;99.90;18.50;100014;;;;595233;237;24043;-80
2023/07/19 07:38:23;;;;;;;3.43;1.50;;;19.00;99.90;18.50;100018;;;;570848;248;24058;-81
2023/07/19 07:40:51;;;;;;;2.00;1.20;;;19.10;99.90;18.60;100016;;;;595389;237;23116;-83
2023/07/19 07:43:20;;;;;;;3.07;1.20;;;19.00;99.90;18.50;100015;;;;604984;237;23068;-81
2023/07/19 07:45:48;;;;;;;3.30;1.47;;;19.00;99.90;18.40;100016;;;;570966;248;24038;-80
2023/07/19 07:48:16;;;;;;;8.43;1.80;;;19.00;99.90;18.40;100013;;;;595449;237;24062;-79
2023/07/19 07:50:44;;;;;;;2.67;1.47;;;18.90;99.90;18.40;100018;;;;595517;237;24056;-80
2023/07/19 07:53:12;;;;;;;2.17;1.70;;;18.80;99.90;18.40;100013;;;;595191;238;24101;-81
2023/07/19 07:55:40;;;;;;;4.73;1.30;;;18.80;99.90;18.30;100013;;;;595143;238;25095;-81
2023/07/19 07:58:08;;;;;;;2.13;1.10;;;18.80;99.90;18.30;100019;;;;570253;248;24197;-81
2023/07/19 08:00:36;;;;;;;9.23;1.60;;;18.80;99.90;18.30;100015;;;;595369;238;24031;-81
2023/07/19 08:03:07;;;;;;;2.17;1.30;;;18.80;99.90;18.30;100015;;;;570825;248;24059;-82
2023/07/19 08:05:37;;;;;;;3.50;1.67;;;18.80;99.90;18.30;100016;;;;595029;238;23066;-82
2023/07/19 08:08:05;;;;;;;7.03;1.50;;;18.80;99.90;18.30;100018;;;;595113;238;23044;-84
2023/07/19 08:10:31;;;;;;;3.10;1.30;;;18.70;99.90;18.30;100013;;;;594860;238;24061;-81
2023/07/19 08:12:59;;;;;;;6.57;1.87;;;18.70;99.90;18.30;100011;;;;594934;238;23052;-81
2023/07/19 08:15:27;;;;;;;2.50;1.60;;;18.70;99.90;18.30;100014;;;;595284;238;24061;-81
2023/07/19 08:17:55;;;;;;;1.70;1.60;;;18.80;99.90;18.30;100005;;;;570757;248;24123;-84
2023/07/19 08:20:25;;;;;;;3.60;1.33;;;18.80;99.90;18.30;100016;;;;595179;238;24141;-82
2023/07/19 08:22:54;;;;;;;5.03;1.83;;;18.80;99.90;18.30;100018;;;;595267;238;24038;-83
2023/07/19 08:25:25;;;;;;;2.83;1.90;;;18.80;99.90;18.30;100010;;;;593404;238;24029;-83
2023/07/19 08:27:49;;;;;;;1.70;1.60;;;18.80;99.90;18.30;100013;;;;595659;237;24048;-82
2023/07/19 08:30:17;;;;;;;6.47;1.87;;;18.80;99.90;18.40;100008;;;;596677;237;23044;-83
2023/07/19 08:32:48;;;;;;;7.60;2.07;;;18.80;99.90;18.40;100005;;;;572052;247;24088;-82
2023/07/19 08:35:16;;;;;;;2.90;1.77;;;18.90;99.90;18.50;100002;;;;596296;237;24163;-81
2023/07/19 08:37:43;;;;;;;2.63;1.80;;;18.90;99.90;18.50;100005;;;;569534;248;23086;-82
2023/07/19 08:40:12;;;;;;;5.43;2.17;;;19.00;99.90;18.60;100009;;;;595591;237;24043;-82
2023/07/19 08:42:39;;;;;;;1.87;1.60;;;19.10;99.90;18.60;100002;;;;582611;246;24115;-81
2023/07/19 08:45:08;;;;;;;5.17;2.10;;;19.10;99.90;18.60;100005;;;;598670;237;23041;-83
2023/07/19 08:47:35;;;;;;;8.30;2.37;;;19.10;99.90;18.70;100003;;;;582377;246;24111;-81
2023/07/19 08:50:07;;;;;;;4.77;2.00;;;19.20;99.90;18.70;100005;;;;595631;237;24075;-82
2023/07/19 08:52:40;;;;;;;3.23;2.43;;;19.20;99.90;18.70;100011;;;;569702;248;24119;-82
2023/07/19 08:55:08;;;;;;;4.28;2.00;;;19.20;99.90;18.70;100009;;;;590649;237;34968;-82
2023/07/19 08:57:42;;;;;;;6.63;2.00;;;19.20;99.90;18.60;100005;;;;595088;237;23124;-80
2023/07/19 09:00:07;;;;;;;2.83;2.03;;;19.20;99.90;18.70;99999;;;;573185;248;24060;-81
2023/07/19 09:02:38;;;;;;;4.77;1.90;;;19.20;99.90;18.70;100000;;;;594172;237;24048;-82
2023/07/19 09:05:09;;;;;;;2.63;1.87;;;19.20;99.90;18.70;100002;;;;596231;238;24056;-82
2023/07/19 09:07:39;;;;;;;4.63;2.10;;;19.20;99.90;18.70;99998;;;;582154;246;24111;-82
2023/07/19 09:10:07;;;;;;;2.10;1.30;;;19.20;99.90;18.80;100002;;;;599997;238;24097;-81
2023/07/19 09:12:41;;;;;;;3.70;1.80;;;19.30;99.90;18.80;99997;;;;604696;238;24054;-81
2023/07/19 09:15:09;;;;;;;4.47;1.50;;;19.30;99.90;18.90;100007;;;;593218;238;23045;-82
2023/07/19 09:17:42;;;;;;;9.87;1.93;;;19.40;99.90;19.00;99993;;;;574270;244;23085;-80
2023/07/19 09:20:13;;;;;;;1.57;1.37;;;19.50;99.90;19.10;99997;;;;600095;238;24012;-82
2023/07/19 09:22:38;;;;;;;2.70;1.90;;;19.60;99.90;19.10;99996;;;;569610;248;23149;-81
2023/07/19 09:25:06;;;;;;;5.83;1.47;;;19.60;99.90;19.20;99995;;;;605431;238;23094;-82
2023/07/19 09:27:37;;;;;;;2.27;1.70;;;19.70;99.90;19.20;100000;;;;593421;238;24006;-80
2023/07/19 09:30:05;;;;;;;1.90;1.30;;;19.70;99.90;19.30;99991;;;;604188;238;23050;-81
2023/07/19 09:32:36;;;;;;;3.47;1.50;;;19.80;99.90;19.30;99995;;;;592812;238;24025;-81
2023/07/19 09:35:13;;;;;;;2.50;1.30;;;19.80;99.90;19.40;99992;;;;568428;245;24066;-82
2023/07/19 09:37:38;;;;;;;1.73;1.47;;;19.70;99.90;19.50;99984;;;;594888;238;24038;-81
2023/07/19 09:40:10;;;;;;;3.57;1.67;;;20.20;99.90;19.70;99982;;;;605325;234;23091;-81
2023/07/19 09:42:37;;;;;;;4.53;2.07;;;20.10;99.90;19.90;99985;;;;585260;243;24146;-81
2023/07/19 09:45:03;;;;;;;3.27;1.20;;;20.40;99.90;20.20;99982;;;;604950;237;23065;-81
2023/07/19 09:47:30;;;;;;;2.67;1.50;;;20.70;99.90;20.30;99977;;;;569162;247;24118;-80
2023/07/19 09:49:59;;;;;;;1.13;1.07;;;20.80;99.90;20.40;99985;;;;604673;237;23078;-80
2023/07/19 09:52:27;;;;;;;2.17;1.37;;;20.90;99.90;20.40;99984;;;;598993;237;23104;-83
2023/07/19 09:54:56;;;;;;;4.83;1.33;;;20.90;99.90;20.40;99969;;;;599207;237;24024;-81
2023/07/19 09:57:26;;;;;;;2.63;1.40;;;20.90;99.90;20.40;99975;;;;568750;247;23089;-80
2023/07/19 09:59:55;;;;;;;1.87;1.63;;;20.90;99.90;20.30;99977;;;;604222;237;24082;-82
2023/07/19 10:02:19;;;;;;;3.07;1.40;;;20.80;99.90;20.30;99968;;;;581809;243;23103;-80
2023/07/19 10:04:47;;;;;;;1.73;1.53;;;20.80;99.90;20.20;99974;;;;604858;234;24030;-81
2023/07/19 10:07:20;;;;;;;3.97;2.50;;;20.70;99.90;20.20;99968;;;;581933;246;24087;-83
2023/07/19 10:09:52;;;;;;;1.77;1.67;;;20.70;99.90;20.10;99968;;;;602131;237;23041;-80
2023/07/19 10:12:19;;;;;;;2.40;1.57;;;20.60;99.90;20.10;99964;;;;595422;237;24103;-81
2023/07/19 10:15:02;;;;;;;7.13;1.50;;;20.60;99.90;20.10;99965;;;;582426;246;24135;-81
2023/07/19 10:17:34;;;;;;;1.40;1.30;;;20.60;99.90;20.10;99965;;;;602824;238;24031;-82
2023/07/19 10:20:11;;;;;;;1.30;1.20;;;20.70;99.90;20.20;99956;;;;568588;248;24067;-82
2023/07/19 10:22:56;;;;;;;2.33;1.43;;;20.70;99.90;20.40;99966;;;;595192;238;24042;-83
2023/07/19 10:25:24;;;;;;;4.30;1.50;;;20.90;99.90;20.50;99959;;;;593373;238;24025;-83
2023/07/19 10:27:58;;;;;;;4.30;1.87;;;21.00;99.90;20.50;99960;;;;604337;238;24063;-84
2023/07/19 10:30:48;;;;;;;12.93;2.03;;;21.00;99.90;20.50;99954;;;;603410;238;24062;-83
2023/07/19 10:33:21;;;;;;;2.63;1.50;;;21.00;99.90;20.40;99955;;;;604062;238;24086;-83
2023/07/19 10:35:52;;;;;;;3.77;1.67;;;20.90;99.90;20.40;99956;;;;573170;247;24071;-83
2023/07/19 10:38:23;;;;;;;2.73;1.50;;;20.90;99.90;20.30;99948;;;;604373;238;24132;-83
2023/07/19 10:40:48;;;;;;;3.03;1.60;;;20.80;99.90;20.20;99948;;;;568554;248;24061;-82
2023/07/19 10:43:16;;;;;;;4.73;1.50;;;20.70;99.90;20.20;99947;;;;604544;238;24031;-83
2023/07/19 10:45:45;;;;;;;1.80;1.30;;;20.60;99.90;20.20;99947;;;;570803;246;24063;-81
2023/07/19 10:48:17;;;;;;;1.63;1.30;;;20.70;99.90;20.20;99949;;;;599114;238;23058;-82
2023/07/19 10:50:48;;;;;;;1.57;1.43;;;20.60;99.90;20.20;99944;;;;599297;237;24046;-82
2023/07/19 10:53:14;;;;;;;1.80;1.27;;;20.60;99.90;20.20;99959;;;;574492;246;24107;-83
2023/07/19 10:55:45;;;;;;;2.20;1.37;;;20.60;99.90;20.10;99964;;;;600130;237;24104;-83
2023/07/19 10:58:11;;;;;;;2.97;1.50;;;20.50;99.90;19.90;99962;;;;569188;247;24186;-83
2023/07/19 11:00:43;;;;;;;2.97;1.30;;;20.40;99.90;19.70;99960;;;;599598;237;24225;-81
2023/07/19 11:03:08;;;;;;;1.50;1.50;;;20.20;99.90;19.70;99958;;;;571116;246;24136;-82
2023/07/19 11:05:38;;;;;;;1.70;1.57;;;20.00;99.90;19.60;99971;;;;604323;237;23098;-81
2023/07/19 11:08:08;;;;;;;4.03;1.50;;;20.00;99.90;19.50;99968;;;;592924;237;24024;-83
2023/07/19 11:10:36;;;;;;;2.70;1.40;;;20.00;99.90;19.40;99968;;;;604094;237;23124;-81
2023/07/19 11:13:01;;;;;;;2.83;1.50;;;19.90;99.90;19.40;99962;;;;598716;237;24089;-83
2023/07/19 11:15:29;;;;;;;1.70;1.27;;;19.90;99.90;19.50;99951;;;;594976;237;23147;-82
2023/07/19 11:17:58;;;;;;;4.27;1.63;;;20.00;99.90;19.60;99955;;;;599019;237;23060;-81